Airfield :
LOGIN :

Register | Disclaimer

   EN    FR    IT 

 










Legend :    VFR   Marginal VFR   IFR   Intensive IFR   Very Intensive IFR
Visi :
Ceiling :
>= 8 km
>= 3000ft
5 to 8 km
1000 to 3000 ft
1500m to 5 km
500 to 1000 ft
800 to 1500m
200 to 500 ft
< 800m
< 200 ft
Symbols :   Thunderstorms  Fog  Heavy snow  Heavy precipitations  Wind > 20 kt
SIGMETs :     Misc.  Thunderstorms  Icing  Turbulence  Mountain Waves  Volcanic Ashes






- Airport Elevation : 325 ft
- IATA code : BES


LFRB - Brest

CURRENT METAR :
  • 280100Z AUTO 27016G29KT 9999 -RA FEW024/// SCT037/// BKN047/// ///CB 05/03 Q1000 TEMPO 4000 SHRA BKN012TCU

EXPIRED METARs :
  • 280030Z AUTO 26018KT 230V290 9999 FEW028/// SCT088/// BKN110/// ///CB 06/02 Q0999 TEMPO 28020G35KT 4000 SHRA BKN012TCU
  • 280000Z AUTO 25014KT 9999 FEW031/// BKN098/// BKN110/// ///CB 05/04 Q0999 TEMPO 28020G35KT 4000 SHRA BKN010CB
  • 272330Z AUTO 27012KT 9999 FEW021/// SCT036/// BKN064/// ///CB 05/03 Q0999 TEMPO 25025G45KT TSRAGS BKN010CB
  • 272300Z AUTO 24012KT 9999 BKN027/// BKN033/// BKN044/// ///CB 06/04 Q0999 TEMPO 25025G45KT TSRAGS BKN010CB
  • 272230Z AUTO 26010KT 230V290 9999 FEW025 SCT033 BKN050 05/03 Q0999 TEMPO 25025G45KT TSRAGS BKN010CB

TAF TAF LFRB
Valid from the 28 at 00:00 until the 29 at 06:00 UTC


272300Z 2800/2906 26015KT 9999 BKN014 BKN030
TEMPO 2800/2818 28020G35KT 4000 SHRA BKN012TCU
PROB30
TEMPO 2800/2802 TSRAGS BKN010CB
TEMPO 2818/2906 SHRA
ATIS : +33 2 98 32 02 71



MET'MAP, your aeronautical weather chart ! - Copyright ORBIFLY December 2007 - Disclaimer

ORBIFLY MET'MAP TEAM :

Programming & Development : Alexandra Zaïnal
Concept & original design : Baudouin d'Aumeries
Assistance for programming : Marc-Olivier Méhu
Technical & hardware support : Manuel Goepfert

Contact : metmap@orbifly.com




SOURCES & CREDITS :

   NOAA